Time;durP1;ratioP1;P1;durP2;ratioP2;P2;SDS_P1;SDS_P2;PMS_P1;PMS_P2;Temp;Humidity;BMP_temperature;BMP_pressure;BME280_temperature;BME280_humidity;BME280_pressure;Samples;Min_cycle;Max_cycle;Signal;HPM_P1;HPM_P2
2021/03/15 00:02:04;;;;;;;62.13;8.18;;;3.90;62.50;;;;;;5134479;27;20298;-68
2021/03/15 00:04:31;;;;;;;67.72;10.85;;;3.90;62.50;;;;;;5134542;27;20301;-68
2021/03/15 00:06:58;;;;;;;68.43;10.40;;;3.90;62.50;;;;;;5134268;27;20219;-68
2021/03/15 00:09:24;;;;;;;67.45;10.23;;;3.90;62.60;;;;;;5134154;27;20315;-68
2021/03/15 00:11:52;;;;;;;64.30;9.25;;;3.90;62.60;;;;;;5134164;27;20359;-68
2021/03/15 00:14:19;;;;;;;65.93;9.23;;;3.90;62.60;;;;;;5134001;27;20213;-68
2021/03/15 00:16:45;;;;;;;66.72;8.40;;;3.90;62.60;;;;;;5134177;27;20218;-68
2021/03/15 00:19:11;;;;;;;61.17;8.02;;;3.90;62.70;;;;;;5133926;27;20310;-68
2021/03/15 00:21:39;;;;;;;64.15;8.65;;;3.90;63.20;;;;;;5134078;27;20242;-69
2021/03/15 00:24:06;;;;;;;63.58;8.85;;;3.90;62.90;;;;;;5133701;27;20676;-67
2021/03/15 00:26:33;;;;;;;62.78;7.55;;;3.90;62.90;;;;;;5133818;27;20225;-67
2021/03/15 00:28:59;;;;;;;67.43;8.88;;;3.90;63.80;;;;;;5133798;27;20202;-67
2021/03/15 00:31:26;;;;;;;65.53;7.72;;;3.90;63.50;;;;;;5133997;27;20230;-67
2021/03/15 00:33:52;;;;;;;65.80;8.70;;;3.90;63.50;;;;;;5133764;27;20327;-67
2021/03/15 00:36:19;;;;;;;65.78;9.63;;;3.90;63.90;;;;;;5131037;27;20565;-67
2021/03/15 00:38:46;;;;;;;69.40;9.18;;;3.90;64.00;;;;;;5133808;27;20551;-67
2021/03/15 00:41:13;;;;;;;66.05;9.95;;;3.90;64.20;;;;;;5133312;27;20205;-67
2021/03/15 00:43:39;;;;;;;68.10;10.73;;;3.90;64.50;;;;;;5133665;27;20297;-67
2021/03/15 00:46:06;;;;;;;69.53;11.55;;;3.90;64.60;;;;;;5133727;27;20282;-67
2021/03/15 00:48:32;;;;;;;70.30;12.13;;;3.90;64.60;;;;;;5133268;27;20521;-67
2021/03/15 00:50:58;;;;;;;69.63;10.68;;;3.90;64.70;;;;;;5133432;27;20286;-67
2021/03/15 00:53:25;;;;;;;71.28;10.65;;;3.90;64.90;;;;;;5133334;27;20285;-68
2021/03/15 00:55:52;;;;;;;69.93;11.43;;;3.90;65.20;;;;;;5133053;27;20734;-67
2021/03/15 00:58:18;;;;;;;68.82;11.07;;;3.90;65.80;;;;;;5133648;27;20219;-67
2021/03/15 01:00:45;;;;;;;68.00;11.10;;;4.00;66.30;;;;;;5133282;27;20226;-68
2021/03/15 01:03:12;;;;;;;79.88;12.55;;;4.00;66.50;;;;;;5133108;27;20199;-67
2021/03/15 01:05:41;;;;;;;68.07;10.98;;;4.00;67.30;;;;;;5132868;27;20199;-67
2021/03/15 01:08:08;;;;;;;69.53;11.00;;;4.00;67.40;;;;;;5132305;27;20237;-67
2021/03/15 01:10:36;;;;;;;66.30;10.35;;;4.00;67.50;;;;;;5132945;27;20675;-67
2021/03/15 01:13:04;;;;;;;73.10;12.40;;;4.00;67.50;;;;;;5133084;27;20218;-67
2021/03/15 01:15:31;;;;;;;65.60;9.35;;;4.00;67.90;;;;;;5133092;27;20199;-67
2021/03/15 01:17:58;;;;;;;65.53;9.18;;;4.00;68.30;;;;;;5132876;27;20227;-67
2021/03/15 01:20:25;;;;;;;65.05;9.43;;;4.00;68.50;;;;;;5132878;27;20219;-67
2021/03/15 01:22:51;;;;;;;64.65;8.20;;;4.00;68.50;;;;;;5132572;27;20203;-67
2021/03/15 01:25:21;;;;;;;68.47;8.65;;;3.90;68.60;;;;;;5133024;27;20738;-67
2021/03/15 01:27:47;;;;;;;62.70;8.50;;;3.90;68.60;;;;;;5132902;27;20228;-67
2021/03/15 01:30:17;;;;;;;68.00;8.50;;;3.80;68.10;;;;;;5133143;27;20317;-67
2021/03/15 01:32:43;;;;;;;66.97;8.73;;;3.70;68.00;;;;;;5132684;27;20721;-67
2021/03/15 01:35:11;;;;;;;62.63;8.85;;;3.70;67.70;;;;;;5132568;27;20644;-67
2021/03/15 01:37:37;;;;;;;65.03;9.15;;;3.60;67.40;;;;;;5132354;27;20363;-67
2021/03/15 01:40:05;;;;;;;66.30;9.05;;;3.60;67.40;;;;;;5132411;27;20236;-67
2021/03/15 01:42:31;;;;;;;67.90;9.05;;;3.60;67.40;;;;;;5132703;27;20202;-67
2021/03/15 01:44:58;;;;;;;63.85;8.40;;;3.60;67.30;;;;;;5132643;27;20686;-67
2021/03/15 01:47:25;;;;;;;64.07;8.90;;;3.60;67.20;;;;;;5132415;27;20314;-67
2021/03/15 01:49:52;;;;;;;66.35;8.70;;;3.50;67.10;;;;;;5132451;27;20732;-67
2021/03/15 01:52:18;;;;;;;66.97;8.90;;;3.50;66.70;;;;;;5132168;27;20209;-67
2021/03/15 01:54:45;;;;;;;63.42;9.68;;;3.50;66.00;;;;;;5132532;27;20251;-68
2021/03/15 01:57:11;;;;;;;67.22;8.57;;;3.50;64.90;;;;;;5132769;27;20313;-67
2021/03/15 01:59:38;;;;;;;62.80;8.18;;;3.40;63.50;;;;;;5132198;27;20215;-67
2021/03/15 02:02:05;;;;;;;68.00;8.95;;;3.40;62.50;;;;;;5132285;27;20202;-67
2021/03/15 02:04:32;;;;;;;66.88;9.30;;;3.40;61.60;;;;;;5132293;27;20205;-67
2021/03/15 02:06:58;;;;;;;64.38;7.88;;;3.30;60.70;;;;;;5132217;27;20223;-67
2021/03/15 02:09:25;;;;;;;62.30;7.80;;;3.20;60.00;;;;;;5132451;27;20685;-67
2021/03/15 02:12:06;;;;;;;65.90;8.85;;;3.10;57.40;;;;;;5132290;27;20202;-68
2021/03/15 02:14:44;;;;;;;61.95;8.25;;;3.10;55.30;;;;;;5132350;27;20679;-67
2021/03/15 02:17:19;;;;;;;62.10;8.50;;;3.00;54.20;;;;;;5131997;27;20710;-68
2021/03/15 02:20:18;;;;;;;66.55;8.32;;;2.90;52.40;;;;;;5136417;27;20224;-67
2021/03/15 02:22:54;;;;;;;62.75;8.40;;;2.80;51.90;;;;;;5122827;27;20298;-67
2021/03/15 02:25:53;;;;;;;64.93;7.63;;;2.80;50.90;;;;;;5136244;27;20644;-67
2021/03/15 02:28:29;;;;;;;66.70;8.65;;;2.70;49.80;;;;;;5136245;27;20314;-67
2021/03/15 02:31:22;;;;;;;66.57;8.30;;;2.60;49.40;;;;;;5136358;27;20202;-67
2021/03/15 02:34:06;;;;;;;67.07;8.60;;;2.50;47.60;;;;;;5135883;27;20237;-67
2021/03/15 02:36:38;;;;;;;61.67;7.45;;;2.50;47.00;;;;;;5133091;27;20305;-67
2021/03/15 02:39:10;;;;;;;64.20;9.18;;;2.50;47.50;;;;;;5127688;27;20199;-67
2021/03/15 02:41:37;;;;;;;62.10;8.18;;;2.50;49.10;;;;;;5135974;27;20356;-67
2021/03/15 02:44:08;;;;;;;63.10;7.70;;;2.50;50.90;;;;;;5115027;28;20702;-67
2021/03/15 02:46:36;;;;;;;65.53;8.48;;;2.60;53.20;;;;;;5131702;27;20782;-67
2021/03/15 02:49:06;;;;;;;63.63;8.95;;;2.60;54.60;;;;;;5135756;27;20253;-67
2021/03/15 02:51:37;;;;;;;72.60;10.20;;;2.60;56.30;;;;;;5135844;27;20299;-67
2021/03/15 02:54:05;;;;;;;67.07;8.82;;;2.60;55.80;;;;;;5135701;27;20293;-67
2021/03/15 02:56:35;;;;;;;64.70;8.68;;;2.50;56.10;;;;;;5135562;27;20223;-67
2021/03/15 02:59:04;;;;;;;65.55;9.20;;;2.50;56.00;;;;;;5135765;27;20289;-67
2021/03/15 03:01:31;;;;;;;62.38;7.55;;;2.50;56.50;;;;;;5135798;27;20211;-67
2021/03/15 03:03:58;;;;;;;64.82;8.00;;;2.40;56.50;;;;;;5135322;27;20289;-68
2021/03/15 03:06:31;;;;;;;70.45;8.80;;;2.40;56.60;;;;;;5135436;27;20199;-67
2021/03/15 03:09:00;;;;;;;65.65;9.73;;;2.30;56.50;;;;;;5135580;27;20203;-67
2021/03/15 03:11:29;;;;;;;63.95;7.93;;;2.30;56.50;;;;;;5135368;27;20241;-67
2021/03/15 03:13:56;;;;;;;67.50;9.73;;;2.30;56.40;;;;;;5135426;27;20249;-67
2021/03/15 03:16:28;;;;;;;65.43;8.05;;;2.20;56.10;;;;;;5135268;27;20210;-67
2021/03/15 03:18:55;;;;;;;68.05;8.73;;;2.20;56.40;;;;;;5135387;27;20203;-67
2021/03/15 03:21:24;;;;;;;66.82;8.10;;;2.20;56.10;;;;;;5135290;27;20310;-67
2021/03/15 03:23:53;;;;;;;64.15;8.50;;;2.10;56.00;;;;;;5134845;27;20234;-67
2021/03/15 03:26:23;;;;;;;66.05;8.27;;;2.10;55.40;;;;;;5135078;27;20290;-67
2021/03/15 03:28:52;;;;;;;69.25;8.85;;;2.00;55.50;;;;;;5134755;27;20314;-67
2021/03/15 03:31:20;;;;;;;66.03;9.07;;;2.00;55.30;;;;;;5134697;27;20199;-67
2021/03/15 03:33:48;;;;;;;67.00;8.88;;;2.00;55.20;;;;;;5134896;27;20336;-67
2021/03/15 03:36:15;;;;;;;67.35;9.65;;;1.90;54.80;;;;;;5134615;27;20351;-67
2021/03/15 03:38:43;;;;;;;63.60;8.82;;;1.90;54.50;;;;;;5135045;27;20207;-67
2021/03/15 03:41:09;;;;;;;68.45;10.07;;;1.90;54.70;;;;;;5134945;27;20226;-67
2021/03/15 03:43:37;;;;;;;64.03;8.50;;;1.90;54.70;;;;;;5134748;27;20228;-67
2021/03/15 03:46:04;;;;;;;64.18;9.10;;;1.90;55.10;;;;;;5134809;27;20298;-67
2021/03/15 03:48:31;;;;;;;66.88;8.90;;;1.90;55.80;;;;;;5134501;27;20223;-67
2021/03/15 03:50:58;;;;;;;71.90;10.65;;;1.90;56.10;;;;;;5134540;27;20203;-67
2021/03/15 03:53:27;;;;;;;65.80;8.90;;;1.90;56.80;;;;;;5134695;27;20297;-67
2021/03/15 03:55:58;;;;;;;68.57;9.05;;;2.00;58.40;;;;;;5134651;27;20234;-68
2021/03/15 03:58:25;;;;;;;67.20;9.63;;;2.00;59.50;;;;;;5134422;27;20254;-67
2021/03/15 04:00:54;;;;;;;67.85;10.15;;;2.10;60.30;;;;;;5134492;27;20623;-67
2021/03/15 04:03:22;;;;;;;67.03;10.25;;;2.20;60.80;;;;;;5134116;27;20207;-67
2021/03/15 04:05:51;;;;;;;65.22;9.30;;;2.30;61.40;;;;;;5134599;27;20203;-67
2021/03/15 04:08:23;;;;;;;70.28;9.80;;;2.30;61.90;;;;;;5134312;27;20230;-67
2021/03/15 04:10:50;;;;;;;66.05;9.73;;;2.40;62.40;;;;;;5129649;27;20515;-67
2021/03/15 04:13:22;;;;;;;65.78;9.88;;;2.40;62.80;;;;;;5129734;27;20199;-67
2021/03/15 04:15:49;;;;;;;70.68;9.13;;;2.50;63.30;;;;;;5133869;27;20302;-67
2021/03/15 04:18:18;;;;;;;70.38;9.35;;;2.60;63.80;;;;;;5133860;27;20242;-67
2021/03/15 04:20:48;;;;;;;67.97;8.75;;;2.60;63.90;;;;;;5134302;27;20263;-68
2021/03/15 04:23:17;;;;;;;69.25;7.97;;;2.70;64.40;;;;;;5133826;27;20199;-67
2021/03/15 04:25:46;;;;;;;68.22;9.68;;;2.70;64.60;;;;;;5133816;27;20231;-67
2021/03/15 04:28:13;;;;;;;65.57;8.10;;;2.70;64.90;;;;;;5133605;27;20230;-67
2021/03/15 04:30:42;;;;;;;72.60;8.80;;;2.80;65.10;;;;;;5133826;27;20240;-67
2021/03/15 04:33:11;;;;;;;63.00;7.80;;;2.80;65.70;;;;;;5134058;27;20290;-67
2021/03/15 04:35:41;;;;;;;66.20;8.82;;;2.90;65.80;;;;;;5131560;27;20211;-67
2021/03/15 04:38:09;;;;;;;62.05;7.68;;;2.90;66.10;;;;;;5125975;27;20223;-67
2021/03/15 04:40:37;;;;;;;63.08;8.05;;;3.00;66.20;;;;;;5133202;27;20219;-67
2021/03/15 04:43:04;;;;;;;70.28;7.47;;;3.00;66.30;;;;;;5112736;28;20262;-68
2021/03/15 04:45:33;;;;;;;60.88;7.78;;;3.00;66.30;;;;;;5113271;28;20290;-68
2021/03/15 04:48:01;;;;;;;77.18;9.32;;;3.10;66.30;;;;;;5113043;28;20227;-68
2021/03/15 04:50:28;;;;;;;66.10;7.43;;;3.10;66.30;;;;;;5112954;28;20199;-67
2021/03/15 04:52:56;;;;;;;63.45;7.60;;;3.10;66.20;;;;;;5112752;28;20307;-68
2021/03/15 04:55:25;;;;;;;64.50;7.15;;;3.10;66.10;;;;;;5112634;28;20212;-68
2021/03/15 04:57:53;;;;;;;64.22;8.13;;;3.10;66.10;;;;;;5112957;28;20223;-68
2021/03/15 05:00:20;;;;;;;65.40;8.13;;;3.10;66.30;;;;;;5112535;28;20227;-68
2021/03/15 05:02:49;;;;;;;65.90;9.80;;;3.10;66.30;;;;;;5112478;27;20286;-67
2021/03/15 05:05:17;;;;;;;66.28;7.82;;;3.10;66.20;;;;;;5112602;28;20294;-68
2021/03/15 05:07:45;;;;;;;67.43;7.82;;;3.20;66.20;;;;;;5112514;28;20280;-67
2021/03/15 05:10:15;;;;;;;65.32;9.00;;;3.20;66.00;;;;;;5112467;28;20211;-67
2021/03/15 05:12:42;;;;;;;62.95;7.53;;;3.20;66.10;;;;;;5112579;28;20291;-68
2021/03/15 05:15:12;;;;;;;64.30;8.85;;;3.20;66.10;;;;;;5112584;28;20276;-68
2021/03/15 05:17:39;;;;;;;63.85;8.40;;;3.20;66.10;;;;;;5112303;28;20223;-68
2021/03/15 05:20:09;;;;;;;67.38;8.25;;;3.20;66.10;;;;;;5112454;28;20583;-68
2021/03/15 05:22:37;;;;;;;65.70;8.25;;;3.20;66.20;;;;;;5115253;27;20277;-68
2021/03/15 05:25:06;;;;;;;69.47;8.30;;;3.20;66.20;;;;;;5129067;27;20263;-68
2021/03/15 05:27:34;;;;;;;60.85;7.25;;;3.20;65.60;;;;;;5132509;27;20757;-68
2021/03/15 05:30:04;;;;;;;61.53;7.80;;;3.20;65.00;;;;;;5132669;27;20238;-68
2021/03/15 05:32:33;;;;;;;68.55;8.05;;;3.30;63.60;;;;;;5132536;27;20686;-68
2021/03/15 05:35:01;;;;;;;71.43;11.23;;;3.30;62.70;;;;;;5132392;27;20207;-69
2021/03/15 05:37:29;;;;;;;64.20;8.00;;;3.30;62.90;;;;;;5132666;27;20310;-69
2021/03/15 05:39:55;;;;;;;65.70;7.80;;;3.20;62.80;;;;;;5132663;27;20222;-70
2021/03/15 05:42:38;;;;;;;66.03;7.80;;;3.20;62.70;;;;;;5129250;27;20294;-70
2021/03/15 05:45:25;;;;;;;64.47;7.07;;;3.20;62.80;;;;;;5122770;27;20672;-70
2021/03/15 05:48:25;;;;;;;64.70;8.77;;;3.30;62.50;;;;;;5130761;27;20261;-70
2021/03/15 05:51:14;;;;;;;59.92;6.50;;;3.20;62.20;;;;;;5132442;27;20198;-70
2021/03/15 05:54:34;;;;;;;64.32;7.13;;;3.20;62.30;;;;;;5131582;27;20652;-70
2021/03/15 05:57:12;;;;;;;66.97;7.38;;;3.20;62.30;;;;;;5043844;28;20260;-70
2021/03/15 06:00:06;;;;;;;64.18;7.05;;;3.30;62.60;;;;;;5066134;28;20225;-70
2021/03/15 06:03:06;;;;;;;64.90;7.72;;;3.30;62.60;;;;;;5112969;28;20203;-70
2021/03/15 06:05:36;;;;;;;60.83;6.80;;;3.30;62.30;;;;;;5125341;27;20209;-70
2021/03/15 06:08:04;;;;;;;60.95;5.90;;;3.30;61.80;;;;;;5127178;27;20246;-71
2021/03/15 06:10:42;;;;;;;60.42;6.45;;;3.30;61.00;;;;;;5128362;27;20286;-71
2021/03/15 06:13:14;;;;;;;63.47;6.50;;;3.30;60.10;;;;;;5124330;27;20263;-71
2021/03/15 06:15:42;;;;;;;63.13;6.55;;;3.30;59.00;;;;;;5132063;27;20202;-71
2021/03/15 06:18:12;;;;;;;61.50;6.82;;;3.30;57.50;;;;;;5132145;27;20303;-72
2021/03/15 06:20:40;;;;;;;59.72;6.22;;;3.30;57.70;;;;;;5132213;27;20245;-71
2021/03/15 06:23:07;;;;;;;61.70;7.63;;;3.30;57.60;;;;;;5132229;27;20298;-72
2021/03/15 06:25:34;;;;;;;63.28;6.80;;;3.30;57.50;;;;;;5132336;27;20203;-73
2021/03/15 06:28:01;;;;;;;63.13;6.90;;;3.30;57.60;;;;;;5132302;27;20255;-72
2021/03/15 06:30:28;;;;;;;64.95;6.90;;;3.30;57.70;;;;;;5132122;27;20199;-72
2021/03/15 06:32:56;;;;;;;67.78;6.78;;;3.30;57.80;;;;;;5132070;27;20330;-72
2021/03/15 06:35:26;;;;;;;65.30;6.75;;;3.30;57.70;;;;;;5131705;27;20301;-72
2021/03/15 06:37:54;;;;;;;66.07;7.45;;;3.40;57.80;;;;;;5131958;27;20230;-72
2021/03/15 06:40:20;;;;;;;67.22;7.00;;;3.40;57.30;;;;;;5131819;27;20254;-72
2021/03/15 06:42:50;;;;;;;60.25;5.95;;;3.40;56.90;;;;;;5129513;27;20203;-72
2021/03/15 06:45:19;;;;;;;60.53;6.70;;;3.40;56.50;;;;;;5131742;27;20206;-72
2021/03/15 06:47:45;;;;;;;67.63;7.80;;;3.40;55.30;;;;;;5129386;27;20745;-72
2021/03/15 06:50:13;;;;;;;64.95;7.15;;;3.40;54.70;;;;;;5131284;27;20681;-72
2021/03/15 06:52:56;;;;;;;65.38;7.25;;;3.50;54.70;;;;;;5129995;27;20238;-72
2021/03/15 06:55:24;;;;;;;64.43;7.13;;;3.60;55.30;;;;;;5129942;27;20207;-72
2021/03/15 06:57:51;;;;;;;63.10;7.25;;;3.60;55.00;;;;;;5129953;27;20246;-72
2021/03/15 07:00:19;;;;;;;62.80;7.22;;;3.70;51.50;;;;;;5129749;27;20309;-72
2021/03/15 07:02:55;;;;;;;62.75;6.70;;;3.80;48.20;;;;;;5129998;27;20199;-71
2021/03/15 07:05:22;;;;;;;65.57;6.20;;;3.90;40.20;;;;;;5133324;27;20289;-71
2021/03/15 07:07:50;;;;;;;62.67;6.03;;;3.80;36.60;;;;;;5135434;27;20347;-71
2021/03/15 07:10:19;;;;;;;61.63;6.60;;;3.90;36.30;;;;;;5135334;27;20336;-72
2021/03/15 07:12:45;;;;;;;59.10;6.00;;;3.90;35.70;;;;;;5135244;27;20202;-71
2021/03/15 07:15:13;;;;;;;62.28;6.70;;;3.90;35.10;;;;;;5135226;27;20215;-71
2021/03/15 07:17:39;;;;;;;59.35;6.50;;;4.00;34.80;;;;;;5135181;27;20310;-71
2021/03/15 07:20:07;;;;;;;61.67;7.00;;;4.00;35.30;;;;;;5135434;27;20309;-71
2021/03/15 07:22:36;;;;;;;60.50;5.85;;;4.00;34.30;;;;;;5134959;27;20293;-71
2021/03/15 07:25:08;;;;;;;59.60;5.43;;;4.00;32.40;;;;;;5135038;27;20199;-71
2021/03/15 07:27:37;;;;;;;62.00;6.15;;;4.00;28.20;;;;;;5134817;27;20305;-71
2021/03/15 07:30:28;;;;;;;61.03;6.28;;;4.00;24.30;;;;;;5135205;27;20266;-71
2021/03/15 07:32:55;;;;;;;60.13;5.43;;;4.10;24.20;;;;;;5131413;27;20206;-69
2021/03/15 07:35:26;;;;;;;58.80;5.40;;;4.20;21.50;;;;;;5134823;27;20215;-71
2021/03/15 07:37:53;;;;;;;58.70;5.55;;;4.30;21.70;;;;;;5134711;27;20313;-71
2021/03/15 07:40:45;;;;;;;59.15;5.20;;;4.30;20.10;;;;;;5134602;27;20313;-70
2021/03/15 07:43:14;;;;;;;59.63;5.93;;;4.20;16.30;;;;;;5119405;27;20203;-70
2021/03/15 07:45:43;;;;;;;60.90;5.35;;;4.20;14.60;;;;;;5134794;27;20613;-71
2021/03/15 07:48:20;;;;;;;58.47;4.85;;;4.10;12.40;;;;;;5134720;27;20275;-71
2021/03/15 07:50:58;;;;;;;57.97;4.50;;;4.00;12.10;;;;;;5134866;27;20361;-71
2021/03/15 07:53:39;;;;;;;57.47;4.47;;;3.90;13.10;;;;;;5134472;27;20697;-71
2021/03/15 07:56:07;;;;;;;58.10;4.05;;;3.80;10.00;;;;;;5134727;27;20231;-71
2021/03/15 07:58:36;;;;;;;57.05;4.25;;;3.70;11.30;;;;;;5134619;27;20206;-71
2021/03/15 08:01:04;;;;;;;61.67;5.30;;;3.70;10.70;;;;;;5134407;27;20250;-71
2021/03/15 08:03:31;;;;;;;57.47;4.40;;;3.60;10.00;;;;;;5131232;27;20667;-71
2021/03/15 08:05:59;;;;;;;58.60;4.50;;;3.60;9.50;;;;;;5114006;28;20203;-71
2021/03/15 08:08:26;;;;;;;59.10;4.28;;;3.70;9.40;;;;;;5113787;28;20597;-71
2021/03/15 08:10:53;;;;;;;58.33;4.15;;;3.70;8.70;;;;;;5113953;27;20230;-71
2021/03/15 08:13:22;;;;;;;57.40;4.15;;;3.70;8.90;;;;;;5113361;28;20235;-71
2021/03/15 08:15:52;;;;;;;56.92;3.88;;;3.70;11.30;;;;;;5113218;28;20291;-71
2021/03/15 08:18:23;;;;;;;57.40;4.03;;;3.80;12.80;;;;;;5113498;28;20255;-70
2021/03/15 08:20:53;;;;;;;56.35;3.30;;;3.80;14.20;;;;;;5113910;28;20233;-72
2021/03/15 08:23:20;;;;;;;58.70;4.43;;;3.80;14.20;;;;;;5113521;28;20299;-71
2021/03/15 08:25:48;;;;;;;56.90;3.45;;;3.90;14.30;;;;;;5113434;28;20239;-71
2021/03/15 08:28:16;;;;;;;57.17;3.60;;;3.90;14.40;;;;;;5113278;28;20224;-71
2021/03/15 08:30:51;;;;;;;61.47;5.90;;;4.10;17.10;;;;;;5113804;28;20241;-70
2021/03/15 08:33:19;;;;;;;59.72;4.28;;;4.20;17.80;;;;;;5118534;27;20286;-69
2021/03/15 08:35:46;;;;;;;55.70;3.55;;;4.30;18.30;;;;;;5133775;27;20206;-69
2021/03/15 08:38:16;;;;;;;56.92;3.63;;;4.30;17.80;;;;;;5133555;27;20715;-69
2021/03/15 08:41:04;;;;;;;59.35;5.03;;;4.40;16.40;;;;;;5132742;27;20279;-71
2021/03/15 08:43:45;;;;;;;57.30;4.28;;;4.40;16.40;;;;;;5128781;27;20286;-71
2021/03/15 08:46:15;;;;;;;58.20;5.00;;;4.50;17.60;;;;;;5133722;27;20239;-71
2021/03/15 08:48:58;;;;;;;60.65;4.07;;;4.50;19.20;;;;;;5133444;27;20311;-71
2021/03/15 08:51:55;;;;;;;58.95;4.20;;;4.50;16.70;;;;;;5133911;27;20199;-69
2021/03/15 08:54:46;;;;;;;58.70;4.20;;;4.50;12.80;;;;;;5133822;27;20198;-71
2021/03/15 08:57:31;;;;;;;56.60;3.72;;;4.40;13.20;;;;;;5133717;27;20222;-71
2021/03/15 08:59:57;;;;;;;57.00;3.95;;;4.50;13.70;;;;;;5133439;27;20223;-71
2021/03/15 09:02:35;;;;;;;58.10;4.10;;;4.50;14.00;;;;;;5133502;27;20298;-70
2021/03/15 09:05:25;;;;;;;56.42;4.25;;;4.50;13.30;;;;;;5133307;27;20209;-70
2021/03/15 09:07:52;;;;;;;56.45;4.35;;;4.60;13.60;;;;;;5133088;27;20757;-70
2021/03/15 09:10:37;;;;;;;57.90;4.50;;;4.70;13.60;;;;;;5133228;27;20286;-70
2021/03/15 09:13:32;;;;;;;57.67;4.72;;;4.70;13.80;;;;;;5133067;27;20214;-70
2021/03/15 09:16:01;;;;;;;56.97;4.18;;;4.70;13.60;;;;;;5133567;27;20211;-70
2021/03/15 09:19:00;;;;;;;56.20;3.80;;;4.70;14.10;;;;;;5133091;27;20762;-70
2021/03/15 09:21:51;;;;;;;57.42;3.90;;;4.70;15.00;;;;;;5069423;28;20228;-69
2021/03/15 09:24:34;;;;;;;56.08;3.38;;;4.80;15.10;;;;;;5121391;27;20234;-70
2021/03/15 09:27:01;;;;;;;57.42;3.47;;;4.90;15.10;;;;;;5119799;27;20324;-70
2021/03/15 09:29:29;;;;;;;56.25;2.88;;;5.00;16.10;;;;;;5132743;27;20286;-70
2021/03/15 09:31:59;;;;;;;57.42;3.15;;;5.00;16.20;;;;;;5132658;27;20206;-71
2021/03/15 09:34:27;;;;;;;58.10;3.35;;;5.10;16.00;;;;;;5132861;27;20653;-71
2021/03/15 09:36:55;;;;;;;55.70;3.30;;;5.20;13.70;;;;;;5133609;27;20627;-71
2021/03/15 09:39:25;;;;;;;55.78;3.15;;;5.20;9.40;;;;;;5132761;27;20203;-71
2021/03/15 09:41:51;;;;;;;56.80;4.68;;;5.20;8.60;;;;;;5132415;27;20725;-71
2021/03/15 09:44:23;;;;;;;56.00;3.10;;;5.20;8.90;;;;;;5132753;27;20281;-71
2021/03/15 09:46:51;;;;;;;56.60;3.53;;;5.20;9.70;;;;;;5132726;27;20218;-71
2021/03/15 09:49:34;;;;;;;58.55;3.80;;;5.20;7.50;;;;;;5132541;27;20253;-71
2021/03/15 09:52:15;;;;;;;55.88;3.63;;;5.20;7.00;;;;;;5130850;27;20294;-71
2021/03/15 09:54:43;;;;;;;57.35;4.07;;;5.20;6.20;;;;;;5132486;27;20207;-71
2021/03/15 09:57:10;;;;;;;57.30;3.88;;;5.20;7.30;;;;;;5132601;27;20294;-71
2021/03/15 09:59:37;;;;;;;56.17;3.63;;;5.10;7.80;;;;;;5132208;27;20270;-71
2021/03/15 10:02:03;;;;;;;57.10;3.92;;;5.20;8.20;;;;;;5132242;27;20222;-70
2021/03/15 10:04:34;;;;;;;57.97;3.83;;;5.20;9.00;;;;;;5132529;27;20266;-71
2021/03/15 10:07:03;;;;;;;56.95;3.92;;;5.30;9.90;;;;;;5132570;27;20226;-71
2021/03/15 10:09:31;;;;;;;57.15;3.90;;;5.30;11.40;;;;;;5132359;27;20309;-72
2021/03/15 10:11:59;;;;;;;56.75;4.45;;;5.40;13.50;;;;;;5132647;27;20655;-72
2021/03/15 10:14:25;;;;;;;59.20;4.72;;;5.40;13.90;;;;;;5132610;27;20306;-71
2021/03/15 10:16:53;;;;;;;58.78;5.03;;;5.50;14.20;;;;;;5132044;27;20311;-72
2021/03/15 10:19:23;;;;;;;57.65;4.50;;;5.50;13.90;;;;;;5132364;27;20231;-70
2021/03/15 10:21:50;;;;;;;57.90;4.32;;;5.50;14.20;;;;;;5132293;27;20309;-71
2021/03/15 10:24:31;;;;;;;59.95;4.70;;;5.50;10.70;;;;;;5132229;27;20225;-71
2021/03/15 10:26:58;;;;;;;58.13;5.03;;;5.50;6.40;;;;;;5132283;27;20230;-71
2021/03/15 10:29:25;;;;;;;59.13;5.40;;;5.50;6.30;;;;;;5132341;27;20207;-71
2021/03/15 10:31:52;;;;;;;59.08;4.75;;;5.50;9.70;;;;;;5132014;27;20199;-71
2021/03/15 10:34:22;;;;;;;59.03;4.88;;;5.60;8.90;;;;;;5132229;27;20363;-71
2021/03/15 10:36:49;;;;;;;60.42;4.78;;;5.60;7.50;;;;;;5131975;27;20227;-71
2021/03/15 10:39:18;;;;;;;58.35;4.90;;;5.60;6.50;;;;;;5133558;27;20347;-71
2021/03/15 10:41:45;;;;;;;58.55;5.05;;;5.70;6.40;;;;;;5136211;27;20226;-71
2021/03/15 10:44:12;;;;;;;57.28;4.60;;;5.70;1.00;;;;;;5136025;27;20298;-71
2021/03/15 10:46:46;;;;;;;58.42;5.32;;;5.80;2.00;;;;;;5136408;27;20225;-71
2021/03/15 10:49:21;;;;;;;58.40;5.40;;;5.90;6.70;;;;;;5135904;27;20669;-71
2021/03/15 10:51:50;;;;;;;59.33;5.32;;;6.00;1.90;;;;;;5135730;27;20210;-71
2021/03/15 10:54:28;;;;;;;59.45;4.75;;;6.00;1.00;;;;;;5136098;27;20252;-71
2021/03/15 10:57:10;;;;;;;58.13;5.07;;;5.90;1.00;;;;;;5135870;27;20663;-71
2021/03/15 10:59:37;;;;;;;63.72;4.82;;;5.90;1.00;;;;;;5133737;27;20246;-70
2021/03/15 11:02:03;;;;;;;58.58;5.22;;;5.80;1.00;;;;;;5135579;27;20317;-71
2021/03/15 11:04:35;;;;;;;58.85;5.05;;;5.80;1.00;;;;;;5135723;27;20209;-71
2021/03/15 11:07:16;;;;;;;57.38;4.45;;;5.70;1.00;;;;;;5135547;27;20225;-71
2021/03/15 11:09:56;;;;;;;59.17;5.10;;;5.80;1.00;;;;;;5135640;27;20294;-71
2021/03/15 11:12:37;;;;;;;57.97;4.97;;;5.80;1.00;;;;;;5135325;27;20234;-70
2021/03/15 11:15:32;;;;;;;58.40;5.28;;;5.80;1.00;;;;;;5135388;27;20242;-70
2021/03/15 11:18:10;;;;;;;58.75;5.20;;;5.90;1.00;;;;;;5133800;27;20331;-70
2021/03/15 11:20:43;;;;;;;59.28;4.85;;;5.90;1.00;;;;;;5135330;27;20333;-70
2021/03/15 11:23:10;;;;;;;60.90;5.20;;;5.90;1.00;;;;;;5135390;27;20211;-70
2021/03/15 11:25:38;;;;;;;58.90;5.85;;;5.90;1.00;;;;;;5135514;27;20251;-70
2021/03/15 11:28:10;;;;;;;58.25;5.05;;;5.90;1.00;;;;;;5135196;27;20258;-70
2021/03/15 11:30:37;;;;;;;59.63;5.40;;;5.90;1.00;;;;;;5135132;27;20282;-70
2021/03/15 11:33:09;;;;;;;58.33;5.65;;;5.90;1.00;;;;;;5135111;27;20207;-70
2021/03/15 11:35:38;;;;;;;59.05;6.32;;;5.90;1.00;;;;;;5135153;27;20583;-70
2021/03/15 11:38:05;;;;;;;60.05;6.25;;;6.00;1.00;;;;;;5135273;27;20229;-70
2021/03/15 11:40:36;;;;;;;58.45;5.45;;;6.00;1.00;;;;;;5135082;27;20414;-70
2021/03/15 11:43:05;;;;;;;58.78;6.13;;;6.10;1.00;;;;;;5135107;27;20638;-70
2021/03/15 11:45:31;;;;;;;60.13;5.70;;;6.10;1.00;;;;;;5134057;27;20229;-69
2021/03/15 11:47:58;;;;;;;58.70;5.65;;;6.20;1.00;;;;;;5134476;27;20234;-69
2021/03/15 11:50:26;;;;;;;58.65;4.80;;;6.30;1.00;;;;;;5134262;27;20282;-69
2021/03/15 11:52:53;;;;;;;60.80;5.63;;;6.40;1.00;;;;;;5116722;27;20231;-70
2021/03/15 11:55:21;;;;;;;57.80;5.18;;;6.50;1.00;;;;;;5133448;27;20213;-69
2021/03/15 11:57:48;;;;;;;59.30;5.50;;;6.40;1.00;;;;;;5134615;27;20223;-69
2021/03/15 12:00:18;;;;;;;58.33;5.60;;;6.50;1.00;;;;;;5134509;27;20360;-69
2021/03/15 12:02:46;;;;;;;59.08;5.07;;;6.50;1.00;;;;;;5134428;27;20212;-69
2021/03/15 12:05:13;;;;;;;58.88;6.10;;;6.50;1.00;;;;;;5134575;27;20579;-69
2021/03/15 12:07:41;;;;;;;58.47;5.50;;;6.70;1.00;;;;;;5134491;27;20311;-69
2021/03/15 12:10:10;;;;;;;59.08;6.00;;;6.90;1.00;;;;;;5134493;27;20291;-69
2021/03/15 12:12:37;;;;;;;58.55;5.60;;;7.20;1.00;;;;;;5134127;27;20291;-69
2021/03/15 12:15:06;;;;;;;57.67;5.37;;;7.70;1.00;;;;;;5134017;27;20304;-69
2021/03/15 12:17:34;;;;;;;57.37;4.73;;;8.50;1.00;;;;;;5134557;27;20610;-69
2021/03/15 12:20:00;;;;;;;58.80;4.77;;;9.00;1.00;;;;;;5134273;27;20447;-68
2021/03/15 12:22:27;;;;;;;57.17;4.17;;;9.40;1.00;;;;;;5127890;27;20482;-69
2021/03/15 12:24:53;;;;;;;57.70;4.10;;;9.60;1.00;;;;;;5116424;27;20506;-69
2021/03/15 12:27:20;;;;;;;57.17;3.60;;;10.00;1.00;;;;;;5103115;27;20472;-69
2021/03/15 12:29:46;;;;;;;59.70;3.70;;;10.30;1.00;;;;;;5119721;27;20824;-69
2021/03/15 12:32:13;;;;;;;56.77;3.40;;;10.00;1.00;;;;;;5133781;27;20441;-69
2021/03/15 12:34:40;;;;;;;56.17;3.03;;;9.50;1.00;;;;;;5133771;27;20475;-68
2021/03/15 12:37:06;;;;;;;57.33;3.47;;;9.20;1.00;;;;;;5133775;27;20575;-68
2021/03/15 12:39:33;;;;;;;56.60;3.57;;;8.80;1.00;;;;;;5133829;27;20531;-68
2021/03/15 12:42:00;;;;;;;56.40;3.30;;;8.50;1.00;;;;;;5133542;27;20488;-68
2021/03/15 12:44:27;;;;;;;56.33;3.00;;;8.30;1.00;;;;;;5133787;27;20475;-68
2021/03/15 12:46:53;;;;;;;57.37;3.80;;;8.20;1.00;;;;;;5133755;27;20556;-68
2021/03/15 12:49:19;;;;;;;57.23;4.10;;;8.30;1.00;;;;;;5128838;27;20551;-68
2021/03/15 12:51:48;;;;;;;57.50;4.27;;;9.60;1.00;;;;;;5132978;27;20542;-68
2021/03/15 12:54:15;;;;;;;56.80;3.70;;;11.40;1.00;;;;;;5133323;27;20440;-69
2021/03/15 12:56:41;;;;;;;57.07;3.50;;;12.70;1.00;;;;;;5132305;27;20551;-68
2021/03/15 12:59:08;;;;;;;56.57;3.43;;;12.80;1.00;;;;;;5128112;27;20449;-68
2021/03/15 13:01:34;;;;;;;56.87;4.00;;;12.60;1.00;;;;;;5132047;27;20490;-68
2021/03/15 13:04:00;;;;;;;57.90;3.50;;;12.40;1.00;;;;;;5131563;27;20548;-68
2021/03/15 13:06:27;;;;;;;56.70;3.60;;;12.50;1.00;;;;;;5131500;27;20448;-68